sensor_id;sensor_type;location;lat;lon;timestamp;P1;durP1;ratioP1;P2;durP2;ratioP2
17451;SDS011;8843;48.838;9.324;2023-10-31T00:00:09;1.10;;;1.00;;
17451;SDS011;8843;48.838;9.324;2023-10-31T00:02:37;0.70;;;0.70;;
17451;SDS011;8843;48.838;9.324;2023-10-31T00:05:04;0.80;;;0.80;;
17451;SDS011;8843;48.838;9.324;2023-10-31T00:07:31;0.80;;;0.80;;
17451;SDS011;8843;48.838;9.324;2023-10-31T00:09:58;5.73;;;1.27;;
17451;SDS011;8843;48.838;9.324;2023-10-31T00:12:25;0.70;;;0.70;;
17451;SDS011;8843;48.838;9.324;2023-10-31T00:14:52;2.10;;;1.03;;
17451;SDS011;8843;48.838;9.324;2023-10-31T00:17:20;1.53;;;0.70;;
17451;SDS011;8843;48.838;9.324;2023-10-31T00:19:47;2.20;;;0.90;;
17451;SDS011;8843;48.838;9.324;2023-10-31T00:22:14;0.77;;;0.77;;
17451;SDS011;8843;48.838;9.324;2023-10-31T00:24:41;2.50;;;1.00;;
17451;SDS011;8843;48.838;9.324;2023-10-31T00:27:07;0.90;;;0.90;;
17451;SDS011;8843;48.838;9.324;2023-10-31T00:29:35;0.63;;;0.63;;
17451;SDS011;8843;48.838;9.324;2023-10-31T00:32:02;0.87;;;0.87;;
17451;SDS011;8843;48.838;9.324;2023-10-31T00:34:31;1.47;;;0.80;;
17451;SDS011;8843;48.838;9.324;2023-10-31T00:36:57;0.80;;;0.80;;
17451;SDS011;8843;48.838;9.324;2023-10-31T00:39:24;0.63;;;0.63;;
17451;SDS011;8843;48.838;9.324;2023-10-31T00:41:51;2.93;;;0.90;;
17451;SDS011;8843;48.838;9.324;2023-10-31T00:44:18;1.13;;;0.70;;
17451;SDS011;8843;48.838;9.324;2023-10-31T00:46:45;1.50;;;0.63;;
17451;SDS011;8843;48.838;9.324;2023-10-31T00:49:12;0.70;;;0.70;;
17451;SDS011;8843;48.838;9.324;2023-10-31T00:51:40;0.73;;;0.73;;
17451;SDS011;8843;48.838;9.324;2023-10-31T00:54:07;0.70;;;0.70;;
17451;SDS011;8843;48.838;9.324;2023-10-31T00:56:34;0.70;;;0.70;;
17451;SDS011;8843;48.838;9.324;2023-10-31T00:59:00;0.70;;;0.70;;
17451;SDS011;8843;48.838;9.324;2023-10-31T01:01:27;0.60;;;0.60;;
17451;SDS011;8843;48.838;9.324;2023-10-31T01:03:54;0.70;;;0.70;;
17451;SDS011;8843;48.838;9.324;2023-10-31T01:06:21;1.80;;;0.90;;
17451;SDS011;8843;48.838;9.324;2023-10-31T01:08:49;0.63;;;0.60;;
17451;SDS011;8843;48.838;9.324;2023-10-31T01:11:16;0.60;;;0.60;;
17451;SDS011;8843;48.838;9.324;2023-10-31T01:13:43;2.53;;;0.80;;
17451;SDS011;8843;48.838;9.324;2023-10-31T01:16:10;0.50;;;0.50;;
17451;SDS011;8843;48.838;9.324;2023-10-31T01:18:37;1.70;;;0.80;;
17451;SDS011;8843;48.838;9.324;2023-10-31T01:21:03;0.90;;;0.80;;
17451;SDS011;8843;48.838;9.324;2023-10-31T01:23:30;0.67;;;0.67;;
17451;SDS011;8843;48.838;9.324;2023-10-31T01:25:58;0.70;;;0.70;;
17451;SDS011;8843;48.838;9.324;2023-10-31T01:28:25;1.50;;;0.80;;
17451;SDS011;8843;48.838;9.324;2023-10-31T01:30:52;1.17;;;0.80;;
17451;SDS011;8843;48.838;9.324;2023-10-31T01:33:19;0.73;;;0.73;;
17451;SDS011;8843;48.838;9.324;2023-10-31T01:35:46;1.17;;;0.70;;
17451;SDS011;8843;48.838;9.324;2023-10-31T01:38:13;1.33;;;0.90;;
17451;SDS011;8843;48.838;9.324;2023-10-31T01:40:40;1.53;;;0.80;;
17451;SDS011;8843;48.838;9.324;2023-10-31T01:43:08;0.80;;;0.63;;
17451;SDS011;8843;48.838;9.324;2023-10-31T01:45:35;1.50;;;0.73;;
17451;SDS011;8843;48.838;9.324;2023-10-31T01:48:02;0.80;;;0.80;;
17451;SDS011;8843;48.838;9.324;2023-10-31T01:50:29;0.67;;;0.67;;
17451;SDS011;8843;48.838;9.324;2023-10-31T01:52:56;0.97;;;0.90;;
17451;SDS011;8843;48.838;9.324;2023-10-31T01:55:23;1.03;;;0.70;;
17451;SDS011;8843;48.838;9.324;2023-10-31T01:57:52;1.43;;;0.83;;
17451;SDS011;8843;48.838;9.324;2023-10-31T02:00:21;0.97;;;0.97;;
17451;SDS011;8843;48.838;9.324;2023-10-31T02:02:49;1.20;;;0.90;;
17451;SDS011;8843;48.838;9.324;2023-10-31T02:05:19;1.90;;;0.80;;
17451;SDS011;8843;48.838;9.324;2023-10-31T02:07:46;1.43;;;0.70;;
17451;SDS011;8843;48.838;9.324;2023-10-31T02:10:13;0.80;;;0.80;;
17451;SDS011;8843;48.838;9.324;2023-10-31T02:12:40;0.60;;;0.60;;
17451;SDS011;8843;48.838;9.324;2023-10-31T02:15:07;1.20;;;1.10;;
17451;SDS011;8843;48.838;9.324;2023-10-31T02:17:36;1.90;;;0.90;;
17451;SDS011;8843;48.838;9.324;2023-10-31T02:20:03;3.57;;;0.90;;
17451;SDS011;8843;48.838;9.324;2023-10-31T02:22:32;0.80;;;0.80;;
17451;SDS011;8843;48.838;9.324;2023-10-31T02:24:59;1.30;;;0.90;;
17451;SDS011;8843;48.838;9.324;2023-10-31T02:27:26;0.67;;;0.67;;
17451;SDS011;8843;48.838;9.324;2023-10-31T02:29:53;0.57;;;0.57;;
17451;SDS011;8843;48.838;9.324;2023-10-31T02:32:19;0.77;;;0.63;;
17451;SDS011;8843;48.838;9.324;2023-10-31T02:34:46;0.87;;;0.70;;
17451;SDS011;8843;48.838;9.324;2023-10-31T02:37:14;0.80;;;0.80;;
17451;SDS011;8843;48.838;9.324;2023-10-31T02:39:42;0.87;;;0.80;;
17451;SDS011;8843;48.838;9.324;2023-10-31T02:42:09;0.70;;;0.70;;
17451;SDS011;8843;48.838;9.324;2023-10-31T02:44:36;0.90;;;0.80;;
17451;SDS011;8843;48.838;9.324;2023-10-31T02:47:03;0.80;;;0.77;;
17451;SDS011;8843;48.838;9.324;2023-10-31T02:49:30;1.07;;;0.70;;
17451;SDS011;8843;48.838;9.324;2023-10-31T02:51:57;0.60;;;0.60;;
17451;SDS011;8843;48.838;9.324;2023-10-31T02:54:24;0.63;;;0.63;;
17451;SDS011;8843;48.838;9.324;2023-10-31T02:56:52;0.73;;;0.73;;
17451;SDS011;8843;48.838;9.324;2023-10-31T02:59:19;0.70;;;0.70;;
17451;SDS011;8843;48.838;9.324;2023-10-31T03:01:46;0.87;;;0.87;;
17451;SDS011;8843;48.838;9.324;2023-10-31T03:04:12;1.10;;;0.70;;
17451;SDS011;8843;48.838;9.324;2023-10-31T03:06:39;2.30;;;0.80;;
17451;SDS011;8843;48.838;9.324;2023-10-31T03:09:06;3.73;;;1.00;;
17451;SDS011;8843;48.838;9.324;2023-10-31T03:11:33;0.83;;;0.67;;
17451;SDS011;8843;48.838;9.324;2023-10-31T03:14:02;0.70;;;0.70;;
17451;SDS011;8843;48.838;9.324;2023-10-31T03:16:29;2.10;;;0.60;;
17451;SDS011;8843;48.838;9.324;2023-10-31T03:18:56;1.23;;;0.80;;
17451;SDS011;8843;48.838;9.324;2023-10-31T03:21:22;0.70;;;0.70;;
17451;SDS011;8843;48.838;9.324;2023-10-31T03:23:49;0.70;;;0.70;;
17451;SDS011;8843;48.838;9.324;2023-10-31T03:26:18;0.80;;;0.80;;
17451;SDS011;8843;48.838;9.324;2023-10-31T03:28:45;0.93;;;0.80;;
17451;SDS011;8843;48.838;9.324;2023-10-31T03:31:14;0.83;;;0.83;;
17451;SDS011;8843;48.838;9.324;2023-10-31T03:33:41;3.50;;;0.93;;
17451;SDS011;8843;48.838;9.324;2023-10-31T03:36:09;2.43;;;1.30;;
17451;SDS011;8843;48.838;9.324;2023-10-31T03:38:36;1.20;;;0.80;;
17451;SDS011;8843;48.838;9.324;2023-10-31T03:41:03;0.60;;;0.60;;
17451;SDS011;8843;48.838;9.324;2023-10-31T03:43:30;1.23;;;0.70;;
17451;SDS011;8843;48.838;9.324;2023-10-31T03:45:57;5.63;;;1.00;;
17451;SDS011;8843;48.838;9.324;2023-10-31T03:48:25;0.70;;;0.70;;
17451;SDS011;8843;48.838;9.324;2023-10-31T03:50:52;0.80;;;0.80;;
17451;SDS011;8843;48.838;9.324;2023-10-31T03:53:19;0.70;;;0.53;;
17451;SDS011;8843;48.838;9.324;2023-10-31T03:55:46;0.70;;;0.70;;
17451;SDS011;8843;48.838;9.324;2023-10-31T03:58:13;1.00;;;0.70;;
17451;SDS011;8843;48.838;9.324;2023-10-31T04:00:40;0.70;;;0.70;;
17451;SDS011;8843;48.838;9.324;2023-10-31T04:03:07;0.70;;;0.70;;
17451;SDS011;8843;48.838;9.324;2023-10-31T04:05:35;0.70;;;0.70;;
17451;SDS011;8843;48.838;9.324;2023-10-31T04:08:02;2.37;;;0.83;;
17451;SDS011;8843;48.838;9.324;2023-10-31T04:10:29;0.70;;;0.70;;
17451;SDS011;8843;48.838;9.324;2023-10-31T04:12:56;0.70;;;0.70;;
17451;SDS011;8843;48.838;9.324;2023-10-31T04:15:23;2.53;;;0.87;;
17451;SDS011;8843;48.838;9.324;2023-10-31T04:17:50;0.67;;;0.67;;
17451;SDS011;8843;48.838;9.324;2023-10-31T04:20:17;1.13;;;0.80;;
17451;SDS011;8843;48.838;9.324;2023-10-31T04:22:45;0.77;;;0.77;;
17451;SDS011;8843;48.838;9.324;2023-10-31T04:25:12;0.80;;;0.70;;
17451;SDS011;8843;48.838;9.324;2023-10-31T04:27:39;2.90;;;1.07;;
17451;SDS011;8843;48.838;9.324;2023-10-31T04:30:06;0.80;;;0.80;;
17451;SDS011;8843;48.838;9.324;2023-10-31T04:32:33;2.47;;;1.00;;
17451;SDS011;8843;48.838;9.324;2023-10-31T04:35:00;0.90;;;0.70;;
17451;SDS011;8843;48.838;9.324;2023-10-31T04:37:27;2.30;;;1.10;;
17451;SDS011;8843;48.838;9.324;2023-10-31T04:39:55;0.80;;;0.80;;
17451;SDS011;8843;48.838;9.324;2023-10-31T04:42:22;0.83;;;0.83;;
17451;SDS011;8843;48.838;9.324;2023-10-31T04:44:49;1.13;;;1.13;;
17451;SDS011;8843;48.838;9.324;2023-10-31T04:47:16;1.70;;;0.73;;
17451;SDS011;8843;48.838;9.324;2023-10-31T04:49:43;1.73;;;0.87;;
17451;SDS011;8843;48.838;9.324;2023-10-31T04:52:09;0.70;;;0.70;;
17451;SDS011;8843;48.838;9.324;2023-10-31T04:54:37;1.77;;;0.90;;
17451;SDS011;8843;48.838;9.324;2023-10-31T04:57:05;0.80;;;0.80;;
17451;SDS011;8843;48.838;9.324;2023-10-31T04:59:32;2.17;;;0.80;;
17451;SDS011;8843;48.838;9.324;2023-10-31T05:01:59;2.00;;;1.00;;
17451;SDS011;8843;48.838;9.324;2023-10-31T05:04:25;0.80;;;0.80;;
17451;SDS011;8843;48.838;9.324;2023-10-31T05:06:52;1.00;;;0.90;;
17451;SDS011;8843;48.838;9.324;2023-10-31T05:09:19;1.27;;;0.90;;
17451;SDS011;8843;48.838;9.324;2023-10-31T05:11:48;2.60;;;1.07;;
17451;SDS011;8843;48.838;9.324;2023-10-31T05:14:16;1.70;;;1.20;;
17451;SDS011;8843;48.838;9.324;2023-10-31T05:16:43;2.23;;;0.80;;
17451;SDS011;8843;48.838;9.324;2023-10-31T05:19:10;1.27;;;1.17;;
17451;SDS011;8843;48.838;9.324;2023-10-31T05:21:37;1.10;;;0.80;;
17451;SDS011;8843;48.838;9.324;2023-10-31T05:24:05;1.47;;;0.80;;
17451;SDS011;8843;48.838;9.324;2023-10-31T05:26:33;0.70;;;0.70;;
17451;SDS011;8843;48.838;9.324;2023-10-31T05:28:59;0.90;;;0.90;;
17451;SDS011;8843;48.838;9.324;2023-10-31T05:31:28;1.13;;;0.90;;
17451;SDS011;8843;48.838;9.324;2023-10-31T05:33:55;1.00;;;1.00;;
17451;SDS011;8843;48.838;9.324;2023-10-31T05:36:22;0.87;;;0.80;;
17451;SDS011;8843;48.838;9.324;2023-10-31T05:38:50;1.13;;;0.70;;
17451;SDS011;8843;48.838;9.324;2023-10-31T05:41:17;0.80;;;0.80;;
17451;SDS011;8843;48.838;9.324;2023-10-31T05:43:44;2.03;;;0.97;;
17451;SDS011;8843;48.838;9.324;2023-10-31T05:46:11;1.90;;;0.93;;
17451;SDS011;8843;48.838;9.324;2023-10-31T05:48:41;2.97;;;1.00;;
17451;SDS011;8843;48.838;9.324;2023-10-31T05:51:12;0.70;;;0.70;;
17451;SDS011;8843;48.838;9.324;2023-10-31T05:53:40;0.80;;;0.80;;
17451;SDS011;8843;48.838;9.324;2023-10-31T05:56:08;0.70;;;0.70;;
17451;SDS011;8843;48.838;9.324;2023-10-31T05:58:36;1.37;;;0.87;;
17451;SDS011;8843;48.838;9.324;2023-10-31T06:01:03;0.80;;;0.80;;
17451;SDS011;8843;48.838;9.324;2023-10-31T06:03:30;3.37;;;0.90;;
17451;SDS011;8843;48.838;9.324;2023-10-31T06:05:58;1.23;;;1.00;;
17451;SDS011;8843;48.838;9.324;2023-10-31T06:08:25;2.30;;;1.00;;
17451;SDS011;8843;48.838;9.324;2023-10-31T06:10:54;1.40;;;0.93;;
17451;SDS011;8843;48.838;9.324;2023-10-31T06:13:21;0.93;;;0.93;;
17451;SDS011;8843;48.838;9.324;2023-10-31T06:15:48;1.23;;;1.10;;
17451;SDS011;8843;48.838;9.324;2023-10-31T06:18:17;2.10;;;1.00;;
17451;SDS011;8843;48.838;9.324;2023-10-31T06:21:05;2.83;;;1.20;;
17451;SDS011;8843;48.838;9.324;2023-10-31T06:23:35;2.70;;;1.30;;
17451;SDS011;8843;48.838;9.324;2023-10-31T06:26:06;1.10;;;1.00;;
17451;SDS011;8843;48.838;9.324;2023-10-31T06:28:36;3.13;;;1.10;;
17451;SDS011;8843;48.838;9.324;2023-10-31T06:31:05;1.27;;;1.10;;
17451;SDS011;8843;48.838;9.324;2023-10-31T06:33:32;2.33;;;1.20;;
17451;SDS011;8843;48.838;9.324;2023-10-31T06:35:59;3.80;;;1.10;;
17451;SDS011;8843;48.838;9.324;2023-10-31T06:38:27;2.17;;;1.27;;
17451;SDS011;8843;48.838;9.324;2023-10-31T06:40:55;1.17;;;1.00;;
17451;SDS011;8843;48.838;9.324;2023-10-31T06:43:22;0.97;;;0.90;;
17451;SDS011;8843;48.838;9.324;2023-10-31T06:45:49;3.43;;;1.03;;
17451;SDS011;8843;48.838;9.324;2023-10-31T06:48:15;1.93;;;1.13;;
17451;SDS011;8843;48.838;9.324;2023-10-31T06:50:42;1.27;;;1.10;;
17451;SDS011;8843;48.838;9.324;2023-10-31T06:53:09;1.00;;;0.90;;
17451;SDS011;8843;48.838;9.324;2023-10-31T06:55:38;1.00;;;0.90;;
17451;SDS011;8843;48.838;9.324;2023-10-31T06:58:05;3.20;;;1.10;;
17451;SDS011;8843;48.838;9.324;2023-10-31T07:00:31;1.93;;;1.00;;
17451;SDS011;8843;48.838;9.324;2023-10-31T07:02:58;1.23;;;0.80;;
17451;SDS011;8843;48.838;9.324;2023-10-31T07:05:30;1.93;;;1.30;;
17451;SDS011;8843;48.838;9.324;2023-10-31T07:07:56;1.23;;;1.03;;
17451;SDS011;8843;48.838;9.324;2023-10-31T07:10:23;3.77;;;1.10;;
17451;SDS011;8843;48.838;9.324;2023-10-31T07:12:51;1.30;;;1.00;;
17451;SDS011;8843;48.838;9.324;2023-10-31T07:15:18;1.00;;;1.00;;
17451;SDS011;8843;48.838;9.324;2023-10-31T07:17:46;2.63;;;1.07;;
17451;SDS011;8843;48.838;9.324;2023-10-31T07:20:13;1.57;;;0.93;;
17451;SDS011;8843;48.838;9.324;2023-10-31T07:22:40;2.03;;;1.00;;
17451;SDS011;8843;48.838;9.324;2023-10-31T07:25:07;1.23;;;1.10;;
17451;SDS011;8843;48.838;9.324;2023-10-31T07:27:34;4.03;;;0.90;;
17451;SDS011;8843;48.838;9.324;2023-10-31T07:30:03;0.90;;;0.90;;
17451;SDS011;8843;48.838;9.324;2023-10-31T07:32:32;1.13;;;0.80;;
17451;SDS011;8843;48.838;9.324;2023-10-31T07:34:59;1.50;;;1.00;;
17451;SDS011;8843;48.838;9.324;2023-10-31T07:37:25;3.80;;;1.03;;
17451;SDS011;8843;48.838;9.324;2023-10-31T07:39:52;1.10;;;1.00;;
17451;SDS011;8843;48.838;9.324;2023-10-31T07:42:19;1.47;;;1.10;;
17451;SDS011;8843;48.838;9.324;2023-10-31T07:44:46;3.03;;;0.87;;
17451;SDS011;8843;48.838;9.324;2023-10-31T07:47:14;1.53;;;1.20;;
17451;SDS011;8843;48.838;9.324;2023-10-31T07:49:41;0.87;;;0.80;;
17451;SDS011;8843;48.838;9.324;2023-10-31T07:52:08;1.17;;;1.10;;
17451;SDS011;8843;48.838;9.324;2023-10-31T07:54:34;2.07;;;1.20;;
17451;SDS011;8843;48.838;9.324;2023-10-31T07:57:04;2.13;;;0.90;;
17451;SDS011;8843;48.838;9.324;2023-10-31T07:59:32;1.17;;;1.07;;
17451;SDS011;8843;48.838;9.324;2023-10-31T08:01:59;1.10;;;1.00;;
17451;SDS011;8843;48.838;9.324;2023-10-31T08:04:28;0.80;;;0.80;;
17451;SDS011;8843;48.838;9.324;2023-10-31T08:06:55;1.33;;;1.20;;
17451;SDS011;8843;48.838;9.324;2023-10-31T08:09:22;0.90;;;0.90;;
17451;SDS011;8843;48.838;9.324;2023-10-31T08:11:49;1.27;;;1.00;;
17451;SDS011;8843;48.838;9.324;2023-10-31T08:14:16;1.10;;;1.00;;
17451;SDS011;8843;48.838;9.324;2023-10-31T08:16:43;1.43;;;1.07;;
17451;SDS011;8843;48.838;9.324;2023-10-31T08:19:10;2.77;;;1.00;;
17451;SDS011;8843;48.838;9.324;2023-10-31T08:21:39;1.53;;;1.10;;
17451;SDS011;8843;48.838;9.324;2023-10-31T08:24:06;2.07;;;1.40;;
17451;SDS011;8843;48.838;9.324;2023-10-31T08:26:33;5.53;;;1.47;;
17451;SDS011;8843;48.838;9.324;2023-10-31T08:29:00;1.07;;;0.80;;
17451;SDS011;8843;48.838;9.324;2023-10-31T08:31:28;1.00;;;0.90;;
17451;SDS011;8843;48.838;9.324;2023-10-31T08:33:55;2.10;;;1.00;;
17451;SDS011;8843;48.838;9.324;2023-10-31T08:36:21;2.50;;;1.20;;
17451;SDS011;8843;48.838;9.324;2023-10-31T08:38:50;3.13;;;1.27;;
17451;SDS011;8843;48.838;9.324;2023-10-31T08:41:16;2.20;;;1.17;;
17451;SDS011;8843;48.838;9.324;2023-10-31T08:43:45;3.47;;;1.20;;
17451;SDS011;8843;48.838;9.324;2023-10-31T08:46:12;2.17;;;1.30;;
17451;SDS011;8843;48.838;9.324;2023-10-31T08:48:39;2.80;;;1.20;;
17451;SDS011;8843;48.838;9.324;2023-10-31T08:51:06;1.33;;;1.00;;
17451;SDS011;8843;48.838;9.324;2023-10-31T08:53:33;1.60;;;0.87;;
17451;SDS011;8843;48.838;9.324;2023-10-31T08:56:01;1.17;;;0.93;;
17451;SDS011;8843;48.838;9.324;2023-10-31T08:58:28;1.67;;;1.10;;
17451;SDS011;8843;48.838;9.324;2023-10-31T09:00:55;1.40;;;1.03;;
17451;SDS011;8843;48.838;9.324;2023-10-31T09:03:22;4.43;;;1.20;;
17451;SDS011;8843;48.838;9.324;2023-10-31T09:05:49;3.13;;;1.13;;
17451;SDS011;8843;48.838;9.324;2023-10-31T09:08:16;2.47;;;1.07;;
17451;SDS011;8843;48.838;9.324;2023-10-31T09:10:43;2.67;;;0.87;;
17451;SDS011;8843;48.838;9.324;2023-10-31T09:13:13;1.17;;;0.93;;
17451;SDS011;8843;48.838;9.324;2023-10-31T09:15:40;1.20;;;0.63;;
17451;SDS011;8843;48.838;9.324;2023-10-31T09:18:07;1.23;;;1.00;;
17451;SDS011;8843;48.838;9.324;2023-10-31T09:20:34;1.23;;;0.97;;
17451;SDS011;8843;48.838;9.324;2023-10-31T09:23:01;1.90;;;0.97;;
17451;SDS011;8843;48.838;9.324;2023-10-31T09:25:27;2.10;;;1.10;;
17451;SDS011;8843;48.838;9.324;2023-10-31T09:27:55;2.47;;;1.00;;
17451;SDS011;8843;48.838;9.324;2023-10-31T09:30:25;4.27;;;1.37;;
17451;SDS011;8843;48.838;9.324;2023-10-31T09:32:52;2.10;;;1.20;;
17451;SDS011;8843;48.838;9.324;2023-10-31T09:35:19;1.67;;;1.10;;
17451;SDS011;8843;48.838;9.324;2023-10-31T09:37:45;1.37;;;1.07;;
17451;SDS011;8843;48.838;9.324;2023-10-31T09:40:14;1.13;;;1.00;;
17451;SDS011;8843;48.838;9.324;2023-10-31T09:42:41;1.13;;;1.00;;
17451;SDS011;8843;48.838;9.324;2023-10-31T09:45:08;2.03;;;1.13;;
17451;SDS011;8843;48.838;9.324;2023-10-31T09:47:36;2.73;;;1.10;;
17451;SDS011;8843;48.838;9.324;2023-10-31T09:50:04;2.67;;;1.00;;
17451;SDS011;8843;48.838;9.324;2023-10-31T09:52:32;3.90;;;1.00;;
17451;SDS011;8843;48.838;9.324;2023-10-31T09:55:00;1.03;;;0.90;;
17451;SDS011;8843;48.838;9.324;2023-10-31T09:57:28;1.60;;;1.07;;
17451;SDS011;8843;48.838;9.324;2023-10-31T09:59:55;1.17;;;1.00;;
17451;SDS011;8843;48.838;9.324;2023-10-31T10:02:21;1.27;;;1.07;;
17451;SDS011;8843;48.838;9.324;2023-10-31T10:04:50;1.10;;;1.00;;
17451;SDS011;8843;48.838;9.324;2023-10-31T10:07:17;3.13;;;1.20;;
17451;SDS011;8843;48.838;9.324;2023-10-31T10:09:45;1.93;;;0.97;;
17451;SDS011;8843;48.838;9.324;2023-10-31T10:12:12;3.53;;;1.40;;
17451;SDS011;8843;48.838;9.324;2023-10-31T10:14:40;3.10;;;1.00;;
17451;SDS011;8843;48.838;9.324;2023-10-31T10:17:13;1.07;;;0.97;;
17451;SDS011;8843;48.838;9.324;2023-10-31T10:19:42;1.07;;;0.90;;
17451;SDS011;8843;48.838;9.324;2023-10-31T10:22:10;2.90;;;0.97;;
17451;SDS011;8843;48.838;9.324;2023-10-31T10:24:41;2.30;;;1.33;;
17451;SDS011;8843;48.838;9.324;2023-10-31T10:27:08;2.23;;;1.03;;
17451;SDS011;8843;48.838;9.324;2023-10-31T10:29:35;3.10;;;0.90;;
17451;SDS011;8843;48.838;9.324;2023-10-31T10:32:04;3.47;;;1.07;;
17451;SDS011;8843;48.838;9.324;2023-10-31T10:34:34;1.10;;;1.00;;
17451;SDS011;8843;48.838;9.324;2023-10-31T10:37:01;0.90;;;0.90;;
17451;SDS011;8843;48.838;9.324;2023-10-31T10:39:33;1.37;;;1.00;;
17451;SDS011;8843;48.838;9.324;2023-10-31T10:42:01;2.67;;;1.17;;
17451;SDS011;8843;48.838;9.324;2023-10-31T10:44:35;9.10;;;1.10;;
17451;SDS011;8843;48.838;9.324;2023-10-31T10:47:03;2.40;;;1.33;;
17451;SDS011;8843;48.838;9.324;2023-10-31T10:49:32;3.30;;;1.20;;
17451;SDS011;8843;48.838;9.324;2023-10-31T10:52:01;1.60;;;1.00;;
17451;SDS011;8843;48.838;9.324;2023-10-31T10:54:41;2.57;;;1.30;;
17451;SDS011;8843;48.838;9.324;2023-10-31T10:57:20;2.53;;;1.13;;
17451;SDS011;8843;48.838;9.324;2023-10-31T10:59:53;2.00;;;1.13;;
17451;SDS011;8843;48.838;9.324;2023-10-31T11:02:24;2.43;;;1.27;;
17451;SDS011;8843;48.838;9.324;2023-10-31T11:04:52;4.40;;;1.77;;
17451;SDS011;8843;48.838;9.324;2023-10-31T11:07:20;2.17;;;1.10;;
17451;SDS011;8843;48.838;9.324;2023-10-31T11:09:50;2.07;;;1.40;;
17451;SDS011;8843;48.838;9.324;2023-10-31T11:12:17;1.70;;;1.20;;
17451;SDS011;8843;48.838;9.324;2023-10-31T11:14:47;2.83;;;1.20;;
17451;SDS011;8843;48.838;9.324;2023-10-31T11:17:16;2.73;;;1.10;;
17451;SDS011;8843;48.838;9.324;2023-10-31T11:19:50;4.27;;;1.10;;
17451;SDS011;8843;48.838;9.324;2023-10-31T11:22:18;3.57;;;1.77;;
17451;SDS011;8843;48.838;9.324;2023-10-31T11:24:47;5.27;;;1.83;;
17451;SDS011;8843;48.838;9.324;2023-10-31T11:27:16;2.83;;;1.10;;
17451;SDS011;8843;48.838;9.324;2023-10-31T11:29:44;2.00;;;1.10;;
17451;SDS011;8843;48.838;9.324;2023-10-31T11:32:11;1.83;;;1.00;;
17451;SDS011;8843;48.838;9.324;2023-10-31T11:34:38;1.40;;;1.20;;
17451;SDS011;8843;48.838;9.324;2023-10-31T11:37:21;1.33;;;1.23;;
17451;SDS011;8843;48.838;9.324;2023-10-31T11:42:46;1.40;;;1.03;;
17451;SDS011;8843;48.838;9.324;2023-10-31T11:45:24;5.80;;;1.20;;
17451;SDS011;8843;48.838;9.324;2023-10-31T11:47:53;2.67;;;1.20;;
17451;SDS011;8843;48.838;9.324;2023-10-31T11:50:20;2.33;;;1.13;;
17451;SDS011;8843;48.838;9.324;2023-10-31T11:52:57;4.70;;;1.20;;
17451;SDS011;8843;48.838;9.324;2023-10-31T11:55:26;1.23;;;1.13;;
17451;SDS011;8843;48.838;9.324;2023-10-31T11:57:54;4.53;;;1.23;;
17451;SDS011;8843;48.838;9.324;2023-10-31T12:00:21;4.53;;;1.77;;
17451;SDS011;8843;48.838;9.324;2023-10-31T12:02:58;2.33;;;1.20;;
17451;SDS011;8843;48.838;9.324;2023-10-31T12:05:25;1.17;;;0.97;;
17451;SDS011;8843;48.838;9.324;2023-10-31T12:07:53;1.70;;;1.07;;
17451;SDS011;8843;48.838;9.324;2023-10-31T12:10:23;3.23;;;1.10;;
17451;SDS011;8843;48.838;9.324;2023-10-31T12:12:53;1.83;;;1.10;;
17451;SDS011;8843;48.838;9.324;2023-10-31T12:15:20;1.93;;;1.03;;
17451;SDS011;8843;48.838;9.324;2023-10-31T12:17:47;0.93;;;0.93;;
17451;SDS011;8843;48.838;9.324;2023-10-31T12:20:15;5.17;;;1.40;;
17451;SDS011;8843;48.838;9.324;2023-10-31T12:22:42;3.90;;;1.47;;
17451;SDS011;8843;48.838;9.324;2023-10-31T12:25:10;2.13;;;1.20;;
17451;SDS011;8843;48.838;9.324;2023-10-31T12:27:44;3.60;;;1.03;;
17451;SDS011;8843;48.838;9.324;2023-10-31T12:30:13;3.43;;;1.40;;
17451;SDS011;8843;48.838;9.324;2023-10-31T12:32:41;2.57;;;1.30;;
17451;SDS011;8843;48.838;9.324;2023-10-31T12:35:10;2.80;;;1.30;;
17451;SDS011;8843;48.838;9.324;2023-10-31T12:37:43;1.90;;;1.27;;
17451;SDS011;8843;48.838;9.324;2023-10-31T12:40:11;2.57;;;1.47;;
17451;SDS011;8843;48.838;9.324;2023-10-31T12:42:41;2.67;;;1.47;;
17451;SDS011;8843;48.838;9.324;2023-10-31T12:45:09;2.37;;;1.20;;
17451;SDS011;8843;48.838;9.324;2023-10-31T12:47:38;5.10;;;1.70;;
17451;SDS011;8843;48.838;9.324;2023-10-31T12:50:06;3.87;;;1.33;;
17451;SDS011;8843;48.838;9.324;2023-10-31T12:52:47;5.00;;;1.70;;
17451;SDS011;8843;48.838;9.324;2023-10-31T12:55:14;2.20;;;1.23;;
17451;SDS011;8843;48.838;9.324;2023-10-31T12:57:42;3.67;;;1.23;;
17451;SDS011;8843;48.838;9.324;2023-10-31T13:00:11;3.23;;;1.50;;
17451;SDS011;8843;48.838;9.324;2023-10-31T13:02:41;2.23;;;1.53;;
17451;SDS011;8843;48.838;9.324;2023-10-31T13:05:09;2.13;;;1.33;;
17451;SDS011;8843;48.838;9.324;2023-10-31T13:07:38;1.57;;;1.30;;
17451;SDS011;8843;48.838;9.324;2023-10-31T13:10:06;2.50;;;0.90;;
17451;SDS011;8843;48.838;9.324;2023-10-31T13:12:34;2.33;;;1.20;;
17451;SDS011;8843;48.838;9.324;2023-10-31T13:15:01;2.50;;;1.30;;
17451;SDS011;8843;48.838;9.324;2023-10-31T13:17:28;1.87;;;1.20;;
17451;SDS011;8843;48.838;9.324;2023-10-31T13:19:58;2.33;;;1.10;;
17451;SDS011;8843;48.838;9.324;2023-10-31T13:22:25;4.67;;;1.33;;
17451;SDS011;8843;48.838;9.324;2023-10-31T13:24:52;4.00;;;1.33;;
17451;SDS011;8843;48.838;9.324;2023-10-31T13:27:19;2.90;;;1.10;;
17451;SDS011;8843;48.838;9.324;2023-10-31T13:29:46;1.80;;;1.07;;
17451;SDS011;8843;48.838;9.324;2023-10-31T13:32:14;2.30;;;1.13;;
17451;SDS011;8843;48.838;9.324;2023-10-31T13:34:42;3.47;;;1.20;;
17451;SDS011;8843;48.838;9.324;2023-10-31T13:37:10;1.00;;;0.80;;
17451;SDS011;8843;48.838;9.324;2023-10-31T13:39:37;1.37;;;1.03;;
17451;SDS011;8843;48.838;9.324;2023-10-31T13:42:04;2.50;;;1.13;;
17451;SDS011;8843;48.838;9.324;2023-10-31T13:44:31;1.47;;;1.30;;
17451;SDS011;8843;48.838;9.324;2023-10-31T13:46:58;1.50;;;1.30;;
17451;SDS011;8843;48.838;9.324;2023-10-31T13:49:26;2.27;;;1.20;;
17451;SDS011;8843;48.838;9.324;2023-10-31T13:51:53;4.13;;;1.50;;
17451;SDS011;8843;48.838;9.324;2023-10-31T13:54:21;1.83;;;1.13;;
17451;SDS011;8843;48.838;9.324;2023-10-31T13:56:48;2.17;;;1.60;;
17451;SDS011;8843;48.838;9.324;2023-10-31T13:59:15;1.30;;;1.10;;
17451;SDS011;8843;48.838;9.324;2023-10-31T14:01:43;1.70;;;1.30;;
17451;SDS011;8843;48.838;9.324;2023-10-31T14:04:12;2.60;;;1.50;;
17451;SDS011;8843;48.838;9.324;2023-10-31T14:06:39;3.20;;;1.47;;
17451;SDS011;8843;48.838;9.324;2023-10-31T14:09:07;5.47;;;1.63;;
17451;SDS011;8843;48.838;9.324;2023-10-31T14:11:37;2.27;;;1.43;;
17451;SDS011;8843;48.838;9.324;2023-10-31T14:14:05;2.33;;;1.53;;
17451;SDS011;8843;48.838;9.324;2023-10-31T14:16:34;3.63;;;1.50;;
17451;SDS011;8843;48.838;9.324;2023-10-31T14:19:01;3.30;;;1.57;;
17451;SDS011;8843;48.838;9.324;2023-10-31T14:21:28;2.57;;;1.33;;
17451;SDS011;8843;48.838;9.324;2023-10-31T14:23:55;1.80;;;1.33;;
17451;SDS011;8843;48.838;9.324;2023-10-31T14:26:23;3.53;;;1.37;;
17451;SDS011;8843;48.838;9.324;2023-10-31T14:28:51;2.87;;;1.67;;
17451;SDS011;8843;48.838;9.324;2023-10-31T14:31:18;1.40;;;1.30;;
17451;SDS011;8843;48.838;9.324;2023-10-31T14:33:46;2.27;;;1.50;;
17451;SDS011;8843;48.838;9.324;2023-10-31T14:36:13;2.13;;;1.50;;
17451;SDS011;8843;48.838;9.324;2023-10-31T14:38:40;4.17;;;1.70;;
17451;SDS011;8843;48.838;9.324;2023-10-31T14:41:07;4.03;;;1.57;;
17451;SDS011;8843;48.838;9.324;2023-10-31T14:43:34;6.20;;;2.30;;
17451;SDS011;8843;48.838;9.324;2023-10-31T14:46:03;1.93;;;1.70;;
17451;SDS011;8843;48.838;9.324;2023-10-31T14:48:32;4.23;;;1.60;;
17451;SDS011;8843;48.838;9.324;2023-10-31T14:50:59;2.17;;;1.80;;
17451;SDS011;8843;48.838;9.324;2023-10-31T14:53:26;1.97;;;1.80;;
17451;SDS011;8843;48.838;9.324;2023-10-31T14:55:53;2.93;;;2.73;;
17451;SDS011;8843;48.838;9.324;2023-10-31T14:58:20;2.17;;;1.73;;
17451;SDS011;8843;48.838;9.324;2023-10-31T15:00:47;2.73;;;1.67;;
17451;SDS011;8843;48.838;9.324;2023-10-31T15:03:16;2.93;;;1.80;;
17451;SDS011;8843;48.838;9.324;2023-10-31T15:05:44;3.57;;;2.00;;